sensor_id;sensor_type;location;lat;lon;timestamp;P1;durP1;ratioP1;P2;durP2;ratioP2
57441;SDS011;43284;47.042;15.498;2024-03-22T00:02:07;3.20;;;2.15;;
57441;SDS011;43284;47.042;15.498;2024-03-22T00:04:35;4.13;;;1.75;;
57441;SDS011;43284;47.042;15.498;2024-03-22T00:07:01;3.53;;;1.92;;
57441;SDS011;43284;47.042;15.498;2024-03-22T00:09:29;2.88;;;1.80;;
57441;SDS011;43284;47.042;15.498;2024-03-22T00:11:54;2.95;;;1.73;;
57441;SDS011;43284;47.042;15.498;2024-03-22T00:14:20;2.30;;;1.60;;
57441;SDS011;43284;47.042;15.498;2024-03-22T00:16:46;2.33;;;1.40;;
57441;SDS011;43284;47.042;15.498;2024-03-22T00:19:11;1.90;;;1.30;;
57441;SDS011;43284;47.042;15.498;2024-03-22T00:21:37;3.40;;;1.55;;
57441;SDS011;43284;47.042;15.498;2024-03-22T00:24:02;3.42;;;1.35;;
57441;SDS011;43284;47.042;15.498;2024-03-22T00:26:28;2.10;;;1.17;;
57441;SDS011;43284;47.042;15.498;2024-03-22T00:28:54;3.83;;;1.50;;
57441;SDS011;43284;47.042;15.498;2024-03-22T00:31:19;1.63;;;1.02;;
57441;SDS011;43284;47.042;15.498;2024-03-22T00:33:45;3.90;;;1.52;;
57441;SDS011;43284;47.042;15.498;2024-03-22T00:36:10;2.20;;;1.33;;
57441;SDS011;43284;47.042;15.498;2024-03-22T00:38:36;4.03;;;1.35;;
57441;SDS011;43284;47.042;15.498;2024-03-22T00:41:01;2.67;;;1.35;;
57441;SDS011;43284;47.042;15.498;2024-03-22T00:43:27;3.67;;;1.20;;
57441;SDS011;43284;47.042;15.498;2024-03-22T00:45:52;1.75;;;1.27;;
57441;SDS011;43284;47.042;15.498;2024-03-22T00:48:18;2.45;;;1.23;;
57441;SDS011;43284;47.042;15.498;2024-03-22T00:50:43;5.82;;;1.52;;
57441;SDS011;43284;47.042;15.498;2024-03-22T00:53:09;2.55;;;1.42;;
57441;SDS011;43284;47.042;15.498;2024-03-22T00:55:35;2.47;;;1.33;;
57441;SDS011;43284;47.042;15.498;2024-03-22T00:58:01;1.85;;;1.27;;
57441;SDS011;43284;47.042;15.498;2024-03-22T01:00:26;2.50;;;1.33;;
57441;SDS011;43284;47.042;15.498;2024-03-22T01:02:52;2.45;;;1.35;;
57441;SDS011;43284;47.042;15.498;2024-03-22T01:05:17;1.42;;;1.20;;
57441;SDS011;43284;47.042;15.498;2024-03-22T01:07:43;4.30;;;1.42;;
57441;SDS011;43284;47.042;15.498;2024-03-22T01:10:09;1.67;;;1.30;;
57441;SDS011;43284;47.042;15.498;2024-03-22T01:12:35;2.53;;;1.27;;
57441;SDS011;43284;47.042;15.498;2024-03-22T01:15:01;5.55;;;1.30;;
57441;SDS011;43284;47.042;15.498;2024-03-22T01:17:26;2.00;;;1.58;;
57441;SDS011;43284;47.042;15.498;2024-03-22T01:19:52;3.05;;;1.63;;
57441;SDS011;43284;47.042;15.498;2024-03-22T01:22:17;2.67;;;1.25;;
57441;SDS011;43284;47.042;15.498;2024-03-22T01:24:43;2.42;;;1.35;;
57441;SDS011;43284;47.042;15.498;2024-03-22T01:27:10;2.50;;;1.45;;
57441;SDS011;43284;47.042;15.498;2024-03-22T01:29:36;2.80;;;1.75;;
57441;SDS011;43284;47.042;15.498;2024-03-22T01:32:02;3.28;;;1.73;;
57441;SDS011;43284;47.042;15.498;2024-03-22T01:34:27;2.10;;;1.30;;
57441;SDS011;43284;47.042;15.498;2024-03-22T01:36:53;3.22;;;1.45;;
57441;SDS011;43284;47.042;15.498;2024-03-22T01:39:19;3.88;;;1.30;;
57441;SDS011;43284;47.042;15.498;2024-03-22T01:41:48;2.97;;;1.83;;
57441;SDS011;43284;47.042;15.498;2024-03-22T01:44:17;6.05;;;1.63;;
57441;SDS011;43284;47.042;15.498;2024-03-22T01:46:43;2.85;;;1.35;;
57441;SDS011;43284;47.042;15.498;2024-03-22T01:49:09;3.42;;;1.67;;
57441;SDS011;43284;47.042;15.498;2024-03-22T01:51:41;1.90;;;1.48;;
57441;SDS011;43284;47.042;15.498;2024-03-22T01:54:10;4.05;;;1.80;;
57441;SDS011;43284;47.042;15.498;2024-03-22T01:56:39;5.78;;;2.10;;
57441;SDS011;43284;47.042;15.498;2024-03-22T01:59:05;3.05;;;1.50;;
57441;SDS011;43284;47.042;15.498;2024-03-22T02:01:34;2.88;;;1.80;;
57441;SDS011;43284;47.042;15.498;2024-03-22T02:04:01;2.60;;;1.58;;
57441;SDS011;43284;47.042;15.498;2024-03-22T02:06:27;3.13;;;1.80;;
57441;SDS011;43284;47.042;15.498;2024-03-22T02:08:52;3.50;;;1.70;;
57441;SDS011;43284;47.042;15.498;2024-03-22T02:11:19;2.40;;;1.65;;
57441;SDS011;43284;47.042;15.498;2024-03-22T02:13:45;3.35;;;1.40;;
57441;SDS011;43284;47.042;15.498;2024-03-22T02:16:10;2.05;;;1.40;;
57441;SDS011;43284;47.042;15.498;2024-03-22T02:18:36;2.55;;;1.80;;
57441;SDS011;43284;47.042;15.498;2024-03-22T02:21:02;3.83;;;2.95;;
57441;SDS011;43284;47.042;15.498;2024-03-22T02:23:37;4.40;;;1.75;;
57441;SDS011;43284;47.042;15.498;2024-03-22T02:26:04;2.78;;;1.88;;
57441;SDS011;43284;47.042;15.498;2024-03-22T02:28:30;2.28;;;1.40;;
57441;SDS011;43284;47.042;15.498;2024-03-22T02:30:57;2.90;;;1.58;;
57441;SDS011;43284;47.042;15.498;2024-03-22T02:33:23;3.72;;;2.35;;
57441;SDS011;43284;47.042;15.498;2024-03-22T02:35:49;2.33;;;1.75;;
57441;SDS011;43284;47.042;15.498;2024-03-22T02:38:15;2.22;;;1.75;;
57441;SDS011;43284;47.042;15.498;2024-03-22T02:40:42;2.28;;;1.67;;
57441;SDS011;43284;47.042;15.498;2024-03-22T02:43:09;2.38;;;1.77;;
57441;SDS011;43284;47.042;15.498;2024-03-22T02:45:34;2.83;;;1.90;;
57441;SDS011;43284;47.042;15.498;2024-03-22T02:48:00;3.35;;;1.77;;
57441;SDS011;43284;47.042;15.498;2024-03-22T02:50:25;2.50;;;1.85;;
57441;SDS011;43284;47.042;15.498;2024-03-22T02:52:51;3.80;;;1.45;;
57441;SDS011;43284;47.042;15.498;2024-03-22T02:55:19;2.83;;;1.90;;
57441;SDS011;43284;47.042;15.498;2024-03-22T02:57:55;2.42;;;1.67;;
57441;SDS011;43284;47.042;15.498;2024-03-22T03:00:22;3.17;;;2.15;;
57441;SDS011;43284;47.042;15.498;2024-03-22T03:02:48;4.07;;;1.52;;
57441;SDS011;43284;47.042;15.498;2024-03-22T03:05:14;6.00;;;2.10;;
57441;SDS011;43284;47.042;15.498;2024-03-22T03:07:40;2.35;;;1.50;;
57441;SDS011;43284;47.042;15.498;2024-03-22T03:10:05;3.05;;;1.58;;
57441;SDS011;43284;47.042;15.498;2024-03-22T03:12:31;4.20;;;1.58;;
57441;SDS011;43284;47.042;15.498;2024-03-22T03:14:57;3.30;;;1.50;;
57441;SDS011;43284;47.042;15.498;2024-03-22T03:17:23;3.28;;;1.77;;
57441;SDS011;43284;47.042;15.498;2024-03-22T03:19:48;3.95;;;2.10;;
57441;SDS011;43284;47.042;15.498;2024-03-22T03:22:14;2.47;;;1.48;;
57441;SDS011;43284;47.042;15.498;2024-03-22T03:24:40;2.42;;;1.65;;
57441;SDS011;43284;47.042;15.498;2024-03-22T03:27:05;2.83;;;1.58;;
57441;SDS011;43284;47.042;15.498;2024-03-22T03:29:31;2.67;;;1.52;;
57441;SDS011;43284;47.042;15.498;2024-03-22T03:31:56;2.28;;;1.65;;
57441;SDS011;43284;47.042;15.498;2024-03-22T03:34:22;2.90;;;1.77;;
57441;SDS011;43284;47.042;15.498;2024-03-22T03:36:47;3.42;;;1.85;;
57441;SDS011;43284;47.042;15.498;2024-03-22T03:39:13;3.13;;;1.60;;
57441;SDS011;43284;47.042;15.498;2024-03-22T03:41:38;8.75;;;1.52;;
57441;SDS011;43284;47.042;15.498;2024-03-22T03:44:04;2.13;;;1.50;;
57441;SDS011;43284;47.042;15.498;2024-03-22T03:46:30;2.88;;;1.15;;
57441;SDS011;43284;47.042;15.498;2024-03-22T03:48:55;3.17;;;1.58;;
57441;SDS011;43284;47.042;15.498;2024-03-22T03:51:23;1.85;;;1.50;;
57441;SDS011;43284;47.042;15.498;2024-03-22T03:53:49;2.90;;;1.48;;
57441;SDS011;43284;47.042;15.498;2024-03-22T03:56:14;1.40;;;1.27;;
57441;SDS011;43284;47.042;15.498;2024-03-22T03:58:40;4.18;;;1.63;;
57441;SDS011;43284;47.042;15.498;2024-03-22T04:01:08;2.17;;;1.40;;
57441;SDS011;43284;47.042;15.498;2024-03-22T04:03:34;3.25;;;1.55;;
57441;SDS011;43284;47.042;15.498;2024-03-22T04:06:00;4.28;;;1.65;;
57441;SDS011;43284;47.042;15.498;2024-03-22T04:08:26;3.00;;;1.77;;
57441;SDS011;43284;47.042;15.498;2024-03-22T04:10:55;3.60;;;1.33;;
57441;SDS011;43284;47.042;15.498;2024-03-22T04:13:22;2.67;;;1.70;;
57441;SDS011;43284;47.042;15.498;2024-03-22T04:15:48;2.45;;;1.33;;
57441;SDS011;43284;47.042;15.498;2024-03-22T04:18:14;3.83;;;1.85;;
57441;SDS011;43284;47.042;15.498;2024-03-22T04:20:39;3.85;;;1.48;;
57441;SDS011;43284;47.042;15.498;2024-03-22T04:23:05;2.92;;;2.00;;
57441;SDS011;43284;47.042;15.498;2024-03-22T04:25:30;5.22;;;1.50;;
57441;SDS011;43284;47.042;15.498;2024-03-22T04:27:56;2.00;;;1.50;;
57441;SDS011;43284;47.042;15.498;2024-03-22T04:30:21;7.32;;;1.60;;
57441;SDS011;43284;47.042;15.498;2024-03-22T04:32:47;2.05;;;1.30;;
57441;SDS011;43284;47.042;15.498;2024-03-22T04:35:12;2.22;;;1.50;;
57441;SDS011;43284;47.042;15.498;2024-03-22T04:37:38;1.92;;;1.50;;
57441;SDS011;43284;47.042;15.498;2024-03-22T04:40:04;2.33;;;1.30;;
57441;SDS011;43284;47.042;15.498;2024-03-22T04:42:30;3.78;;;1.50;;
57441;SDS011;43284;47.042;15.498;2024-03-22T04:44:56;3.58;;;1.20;;
57441;SDS011;43284;47.042;15.498;2024-03-22T04:47:22;1.92;;;1.50;;
57441;SDS011;43284;47.042;15.498;2024-03-22T04:49:48;4.07;;;1.95;;
57441;SDS011;43284;47.042;15.498;2024-03-22T04:52:13;2.95;;;1.45;;
57441;SDS011;43284;47.042;15.498;2024-03-22T04:54:39;4.80;;;1.60;;
57441;SDS011;43284;47.042;15.498;2024-03-22T04:57:04;2.95;;;1.50;;
57441;SDS011;43284;47.042;15.498;2024-03-22T04:59:30;2.25;;;1.65;;
57441;SDS011;43284;47.042;15.498;2024-03-22T05:01:56;1.92;;;1.23;;
57441;SDS011;43284;47.042;15.498;2024-03-22T05:04:21;1.85;;;1.30;;
57441;SDS011;43284;47.042;15.498;2024-03-22T05:06:47;2.90;;;1.42;;
57441;SDS011;43284;47.042;15.498;2024-03-22T05:09:12;2.97;;;1.42;;
57441;SDS011;43284;47.042;15.498;2024-03-22T05:11:38;1.65;;;1.55;;
57441;SDS011;43284;47.042;15.498;2024-03-22T05:14:03;2.42;;;1.60;;
57441;SDS011;43284;47.042;15.498;2024-03-22T05:16:29;2.22;;;1.40;;
57441;SDS011;43284;47.042;15.498;2024-03-22T05:18:54;1.55;;;1.42;;
57441;SDS011;43284;47.042;15.498;2024-03-22T05:21:20;1.88;;;1.45;;
57441;SDS011;43284;47.042;15.498;2024-03-22T05:23:46;2.72;;;1.52;;
57441;SDS011;43284;47.042;15.498;2024-03-22T05:26:11;3.60;;;1.40;;
57441;SDS011;43284;47.042;15.498;2024-03-22T05:28:37;2.42;;;1.73;;
57441;SDS011;43284;47.042;15.498;2024-03-22T05:31:02;2.25;;;1.60;;
57441;SDS011;43284;47.042;15.498;2024-03-22T05:33:28;4.78;;;1.88;;
57441;SDS011;43284;47.042;15.498;2024-03-22T05:35:53;2.30;;;1.40;;
57441;SDS011;43284;47.042;15.498;2024-03-22T05:38:19;2.08;;;1.33;;
57441;SDS011;43284;47.042;15.498;2024-03-22T05:40:44;5.50;;;1.52;;
57441;SDS011;43284;47.042;15.498;2024-03-22T05:43:12;4.20;;;1.65;;
57441;SDS011;43284;47.042;15.498;2024-03-22T05:45:41;3.95;;;1.52;;
57441;SDS011;43284;47.042;15.498;2024-03-22T05:48:06;2.72;;;1.50;;
57441;SDS011;43284;47.042;15.498;2024-03-22T05:50:39;4.00;;;1.50;;
57441;SDS011;43284;47.042;15.498;2024-03-22T05:53:14;2.90;;;1.98;;
57441;SDS011;43284;47.042;15.498;2024-03-22T05:55:43;4.13;;;1.70;;
57441;SDS011;43284;47.042;15.498;2024-03-22T05:58:08;2.58;;;1.70;;
57441;SDS011;43284;47.042;15.498;2024-03-22T06:00:34;3.40;;;1.40;;
57441;SDS011;43284;47.042;15.498;2024-03-22T06:03:00;3.47;;;1.70;;
57441;SDS011;43284;47.042;15.498;2024-03-22T06:05:25;2.08;;;1.60;;
57441;SDS011;43284;47.042;15.498;2024-03-22T06:07:51;2.05;;;1.50;;
57441;SDS011;43284;47.042;15.498;2024-03-22T06:10:16;4.50;;;1.83;;
57441;SDS011;43284;47.042;15.498;2024-03-22T06:12:42;1.90;;;1.58;;
57441;SDS011;43284;47.042;15.498;2024-03-22T06:15:09;5.03;;;2.03;;
57441;SDS011;43284;47.042;15.498;2024-03-22T06:17:35;5.43;;;1.73;;
57441;SDS011;43284;47.042;15.498;2024-03-22T06:20:00;3.40;;;1.73;;
57441;SDS011;43284;47.042;15.498;2024-03-22T06:22:27;7.80;;;1.70;;
57441;SDS011;43284;47.042;15.498;2024-03-22T06:24:52;5.50;;;1.98;;
57441;SDS011;43284;47.042;15.498;2024-03-22T06:27:18;2.38;;;1.60;;
57441;SDS011;43284;47.042;15.498;2024-03-22T06:29:44;2.42;;;1.80;;
57441;SDS011;43284;47.042;15.498;2024-03-22T06:32:10;9.32;;;2.53;;
57441;SDS011;43284;47.042;15.498;2024-03-22T06:34:40;3.53;;;1.80;;
57441;SDS011;43284;47.042;15.498;2024-03-22T06:37:06;4.65;;;2.03;;
57441;SDS011;43284;47.042;15.498;2024-03-22T06:39:32;7.78;;;3.95;;
57441;SDS011;43284;47.042;15.498;2024-03-22T06:41:57;4.80;;;2.20;;
57441;SDS011;43284;47.042;15.498;2024-03-22T06:44:22;4.72;;;2.30;;
57441;SDS011;43284;47.042;15.498;2024-03-22T06:46:51;6.20;;;2.38;;
57441;SDS011;43284;47.042;15.498;2024-03-22T06:49:16;8.38;;;3.08;;
57441;SDS011;43284;47.042;15.498;2024-03-22T06:51:42;13.75;;;3.78;;
57441;SDS011;43284;47.042;15.498;2024-03-22T06:54:08;8.63;;;3.38;;
57441;SDS011;43284;47.042;15.498;2024-03-22T06:56:33;6.97;;;3.58;;
57441;SDS011;43284;47.042;15.498;2024-03-22T06:58:59;7.60;;;3.03;;
57441;SDS011;43284;47.042;15.498;2024-03-22T07:01:24;9.75;;;4.10;;
57441;SDS011;43284;47.042;15.498;2024-03-22T07:03:50;12.43;;;5.38;;
57441;SDS011;43284;47.042;15.498;2024-03-22T07:06:17;7.03;;;3.38;;
57441;SDS011;43284;47.042;15.498;2024-03-22T07:08:42;9.65;;;3.85;;
57441;SDS011;43284;47.042;15.498;2024-03-22T07:11:08;10.20;;;3.83;;
57441;SDS011;43284;47.042;15.498;2024-03-22T07:13:36;11.95;;;4.13;;
57441;SDS011;43284;47.042;15.498;2024-03-22T07:16:04;8.88;;;3.67;;
57441;SDS011;43284;47.042;15.498;2024-03-22T07:18:30;8.90;;;3.92;;
57441;SDS011;43284;47.042;15.498;2024-03-22T07:20:55;7.82;;;3.85;;
57441;SDS011;43284;47.042;15.498;2024-03-22T07:23:22;12.75;;;3.80;;
57441;SDS011;43284;47.042;15.498;2024-03-22T07:25:48;10.38;;;4.00;;
57441;SDS011;43284;47.042;15.498;2024-03-22T07:28:14;8.65;;;3.22;;
57441;SDS011;43284;47.042;15.498;2024-03-22T07:30:41;9.10;;;4.45;;
57441;SDS011;43284;47.042;15.498;2024-03-22T07:33:07;9.25;;;3.45;;
57441;SDS011;43284;47.042;15.498;2024-03-22T07:35:34;10.27;;;3.50;;
57441;SDS011;43284;47.042;15.498;2024-03-22T07:38:00;15.98;;;4.20;;
57441;SDS011;43284;47.042;15.498;2024-03-22T07:40:25;9.35;;;3.70;;
57441;SDS011;43284;47.042;15.498;2024-03-22T07:42:51;8.55;;;3.85;;
57441;SDS011;43284;47.042;15.498;2024-03-22T07:45:16;10.07;;;3.63;;
57441;SDS011;43284;47.042;15.498;2024-03-22T07:47:42;15.65;;;4.18;;
57441;SDS011;43284;47.042;15.498;2024-03-22T07:50:08;9.93;;;3.88;;
57441;SDS011;43284;47.042;15.498;2024-03-22T07:52:34;11.02;;;3.97;;
57441;SDS011;43284;47.042;15.498;2024-03-22T07:55:00;6.32;;;3.47;;
57441;SDS011;43284;47.042;15.498;2024-03-22T07:57:27;9.50;;;3.58;;
57441;SDS011;43284;47.042;15.498;2024-03-22T07:59:59;9.65;;;4.03;;
57441;SDS011;43284;47.042;15.498;2024-03-22T08:02:25;7.78;;;3.40;;
57441;SDS011;43284;47.042;15.498;2024-03-22T08:04:50;7.03;;;2.47;;
57441;SDS011;43284;47.042;15.498;2024-03-22T08:07:16;11.75;;;3.80;;
57441;SDS011;43284;47.042;15.498;2024-03-22T08:09:44;11.70;;;2.90;;
57441;SDS011;43284;47.042;15.498;2024-03-22T08:12:10;7.90;;;3.38;;
57441;SDS011;43284;47.042;15.498;2024-03-22T08:14:35;9.18;;;3.20;;
57441;SDS011;43284;47.042;15.498;2024-03-22T08:17:01;5.85;;;2.75;;
57441;SDS011;43284;47.042;15.498;2024-03-22T08:19:28;6.85;;;3.00;;
57441;SDS011;43284;47.042;15.498;2024-03-22T08:21:56;11.57;;;3.90;;
57441;SDS011;43284;47.042;15.498;2024-03-22T08:24:22;7.85;;;3.65;;
57441;SDS011;43284;47.042;15.498;2024-03-22T08:26:47;6.30;;;3.20;;
57441;SDS011;43284;47.042;15.498;2024-03-22T08:29:13;7.07;;;3.47;;
57441;SDS011;43284;47.042;15.498;2024-03-22T08:31:40;7.38;;;3.30;;
57441;SDS011;43284;47.042;15.498;2024-03-22T08:34:06;11.10;;;3.88;;
57441;SDS011;43284;47.042;15.498;2024-03-22T08:36:32;10.65;;;3.00;;
57441;SDS011;43284;47.042;15.498;2024-03-22T08:38:58;8.20;;;2.72;;
57441;SDS011;43284;47.042;15.498;2024-03-22T08:41:23;11.30;;;4.80;;
57441;SDS011;43284;47.042;15.498;2024-03-22T08:43:49;7.40;;;3.17;;
57441;SDS011;43284;47.042;15.498;2024-03-22T08:46:14;7.78;;;2.83;;
57441;SDS011;43284;47.042;15.498;2024-03-22T08:48:40;4.88;;;2.65;;
57441;SDS011;43284;47.042;15.498;2024-03-22T08:51:05;5.88;;;3.25;;
57441;SDS011;43284;47.042;15.498;2024-03-22T08:53:31;5.70;;;2.90;;
57441;SDS011;43284;47.042;15.498;2024-03-22T08:55:56;5.38;;;2.50;;
57441;SDS011;43284;47.042;15.498;2024-03-22T08:58:22;6.55;;;2.60;;
57441;SDS011;43284;47.042;15.498;2024-03-22T09:00:47;6.68;;;3.28;;
57441;SDS011;43284;47.042;15.498;2024-03-22T09:03:13;5.05;;;2.63;;
57441;SDS011;43284;47.042;15.498;2024-03-22T09:05:40;4.55;;;2.60;;
57441;SDS011;43284;47.042;15.498;2024-03-22T09:08:08;8.60;;;2.90;;
57441;SDS011;43284;47.042;15.498;2024-03-22T09:10:34;5.68;;;2.72;;
57441;SDS011;43284;47.042;15.498;2024-03-22T09:12:59;4.30;;;2.88;;
57441;SDS011;43284;47.042;15.498;2024-03-22T09:15:25;8.57;;;2.97;;
57441;SDS011;43284;47.042;15.498;2024-03-22T09:17:54;7.53;;;3.25;;
57441;SDS011;43284;47.042;15.498;2024-03-22T09:20:19;8.13;;;3.55;;
57441;SDS011;43284;47.042;15.498;2024-03-22T09:22:45;4.53;;;2.85;;
57441;SDS011;43284;47.042;15.498;2024-03-22T09:25:11;4.47;;;2.30;;
57441;SDS011;43284;47.042;15.498;2024-03-22T09:27:37;3.95;;;2.17;;
57441;SDS011;43284;47.042;15.498;2024-03-22T09:30:02;4.75;;;2.47;;
57441;SDS011;43284;47.042;15.498;2024-03-22T09:32:29;4.25;;;2.40;;
57441;SDS011;43284;47.042;15.498;2024-03-22T09:34:55;4.70;;;2.78;;
57441;SDS011;43284;47.042;15.498;2024-03-22T09:37:21;7.20;;;2.83;;
57441;SDS011;43284;47.042;15.498;2024-03-22T09:39:46;3.40;;;2.17;;
57441;SDS011;43284;47.042;15.498;2024-03-22T09:42:13;4.25;;;2.33;;
57441;SDS011;43284;47.042;15.498;2024-03-22T09:44:44;4.43;;;2.40;;
57441;SDS011;43284;47.042;15.498;2024-03-22T09:47:14;4.68;;;2.13;;
57441;SDS011;43284;47.042;15.498;2024-03-22T09:49:46;7.40;;;2.67;;
57441;SDS011;43284;47.042;15.498;2024-03-22T09:52:13;2.90;;;2.05;;
57441;SDS011;43284;47.042;15.498;2024-03-22T09:54:43;4.32;;;2.28;;
57441;SDS011;43284;47.042;15.498;2024-03-22T09:57:18;5.82;;;2.80;;
57441;SDS011;43284;47.042;15.498;2024-03-22T09:59:44;5.93;;;2.20;;
57441;SDS011;43284;47.042;15.498;2024-03-22T10:02:11;11.60;;;2.70;;
57441;SDS011;43284;47.042;15.498;2024-03-22T10:04:40;3.58;;;2.00;;
57441;SDS011;43284;47.042;15.498;2024-03-22T10:07:06;4.47;;;2.20;;
57441;SDS011;43284;47.042;15.498;2024-03-22T10:09:33;3.83;;;2.45;;
57441;SDS011;43284;47.042;15.498;2024-03-22T10:11:59;4.93;;;2.45;;
57441;SDS011;43284;47.042;15.498;2024-03-22T10:14:25;6.15;;;2.55;;
57441;SDS011;43284;47.042;15.498;2024-03-22T10:16:51;5.00;;;2.20;;
57441;SDS011;43284;47.042;15.498;2024-03-22T10:19:21;6.03;;;2.17;;
57441;SDS011;43284;47.042;15.498;2024-03-22T10:21:47;3.45;;;2.55;;
57441;SDS011;43284;47.042;15.498;2024-03-22T10:24:24;3.95;;;2.17;;
57441;SDS011;43284;47.042;15.498;2024-03-22T10:26:49;11.27;;;2.55;;
57441;SDS011;43284;47.042;15.498;2024-03-22T10:29:15;6.13;;;1.73;;
57441;SDS011;43284;47.042;15.498;2024-03-22T10:31:41;6.03;;;2.20;;
57441;SDS011;43284;47.042;15.498;2024-03-22T10:34:07;3.28;;;2.22;;
57441;SDS011;43284;47.042;15.498;2024-03-22T10:36:34;2.95;;;1.60;;
57441;SDS011;43284;47.042;15.498;2024-03-22T10:39:00;7.75;;;2.40;;
57441;SDS011;43284;47.042;15.498;2024-03-22T10:41:28;7.00;;;2.53;;
57441;SDS011;43284;47.042;15.498;2024-03-22T10:43:54;3.53;;;2.08;;
57441;SDS011;43284;47.042;15.498;2024-03-22T10:46:20;3.65;;;1.70;;
57441;SDS011;43284;47.042;15.498;2024-03-22T10:48:46;5.10;;;2.25;;
57441;SDS011;43284;47.042;15.498;2024-03-22T10:51:12;5.03;;;1.92;;
57441;SDS011;43284;47.042;15.498;2024-03-22T10:53:39;4.75;;;2.40;;
57441;SDS011;43284;47.042;15.498;2024-03-22T10:56:06;5.10;;;1.67;;
57441;SDS011;43284;47.042;15.498;2024-03-22T10:58:34;2.92;;;1.95;;
57441;SDS011;43284;47.042;15.498;2024-03-22T11:01:05;3.30;;;1.92;;
57441;SDS011;43284;47.042;15.498;2024-03-22T11:03:31;9.48;;;2.17;;
57441;SDS011;43284;47.042;15.498;2024-03-22T11:05:58;3.58;;;2.05;;
57441;SDS011;43284;47.042;15.498;2024-03-22T11:08:24;3.65;;;1.67;;
57441;SDS011;43284;47.042;15.498;2024-03-22T11:10:51;3.92;;;1.70;;
57441;SDS011;43284;47.042;15.498;2024-03-22T11:13:17;4.78;;;2.05;;
57441;SDS011;43284;47.042;15.498;2024-03-22T11:15:43;7.95;;;2.55;;
57441;SDS011;43284;47.042;15.498;2024-03-22T11:18:09;2.20;;;1.60;;
57441;SDS011;43284;47.042;15.498;2024-03-22T11:20:41;2.72;;;1.98;;
57441;SDS011;43284;47.042;15.498;2024-03-22T11:23:07;3.38;;;1.52;;
57441;SDS011;43284;47.042;15.498;2024-03-22T11:25:34;4.72;;;1.83;;
57441;SDS011;43284;47.042;15.498;2024-03-22T11:28:00;5.78;;;2.00;;
57441;SDS011;43284;47.042;15.498;2024-03-22T11:30:31;4.72;;;1.95;;
57441;SDS011;43284;47.042;15.498;2024-03-22T11:33:02;5.88;;;1.85;;
57441;SDS011;43284;47.042;15.498;2024-03-22T11:35:28;2.60;;;1.35;;
57441;SDS011;43284;47.042;15.498;2024-03-22T11:37:53;3.55;;;1.83;;
57441;SDS011;43284;47.042;15.498;2024-03-22T11:40:19;3.47;;;2.70;;
57441;SDS011;43284;47.042;15.498;2024-03-22T11:42:46;2.83;;;1.80;;
57441;SDS011;43284;47.042;15.498;2024-03-22T11:45:15;2.42;;;1.40;;
57441;SDS011;43284;47.042;15.498;2024-03-22T11:47:43;2.50;;;2.00;;
57441;SDS011;43284;47.042;15.498;2024-03-22T11:50:09;4.68;;;1.63;;
57441;SDS011;43284;47.042;15.498;2024-03-22T11:52:39;1.98;;;1.42;;
57441;SDS011;43284;47.042;15.498;2024-03-22T11:55:06;2.75;;;1.50;;
57441;SDS011;43284;47.042;15.498;2024-03-22T11:57:31;2.75;;;1.77;;
57441;SDS011;43284;47.042;15.498;2024-03-22T12:00:00;3.10;;;1.42;;
57441;SDS011;43284;47.042;15.498;2024-03-22T12:02:28;15.88;;;3.35;;
57441;SDS011;43284;47.042;15.498;2024-03-22T12:04:54;2.42;;;1.52;;
57441;SDS011;43284;47.042;15.498;2024-03-22T12:07:19;2.92;;;1.50;;
57441;SDS011;43284;47.042;15.498;2024-03-22T12:09:45;3.45;;;1.25;;
57441;SDS011;43284;47.042;15.498;2024-03-22T12:12:13;3.15;;;1.27;;
57441;SDS011;43284;47.042;15.498;2024-03-22T12:14:39;2.22;;;1.33;;
57441;SDS011;43284;47.042;15.498;2024-03-22T12:17:05;3.30;;;1.38;;
57441;SDS011;43284;47.042;15.498;2024-03-22T12:19:31;2.05;;;1.10;;
57441;SDS011;43284;47.042;15.498;2024-03-22T12:21:58;3.67;;;1.23;;
57441;SDS011;43284;47.042;15.498;2024-03-22T12:24:23;2.30;;;1.52;;
57441;SDS011;43284;47.042;15.498;2024-03-22T12:26:49;7.63;;;1.33;;
57441;SDS011;43284;47.042;15.498;2024-03-22T12:29:21;3.20;;;1.35;;
57441;SDS011;43284;47.042;15.498;2024-03-22T12:31:46;1.50;;;1.00;;
57441;SDS011;43284;47.042;15.498;2024-03-22T12:34:16;2.42;;;1.40;;
57441;SDS011;43284;47.042;15.498;2024-03-22T12:36:41;2.58;;;1.40;;
57441;SDS011;43284;47.042;15.498;2024-03-22T12:39:08;1.90;;;1.30;;
57441;SDS011;43284;47.042;15.498;2024-03-22T12:41:33;1.42;;;1.00;;
57441;SDS011;43284;47.042;15.498;2024-03-22T12:43:59;1.70;;;1.10;;
57441;SDS011;43284;47.042;15.498;2024-03-22T12:46:25;3.50;;;1.23;;
57441;SDS011;43284;47.042;15.498;2024-03-22T12:48:52;3.28;;;1.30;;
57441;SDS011;43284;47.042;15.498;2024-03-22T12:51:18;3.53;;;1.80;;
57441;SDS011;43284;47.042;15.498;2024-03-22T12:53:44;1.67;;;1.17;;
57441;SDS011;43284;47.042;15.498;2024-03-22T12:56:09;4.45;;;1.55;;
57441;SDS011;43284;47.042;15.498;2024-03-22T12:58:36;3.55;;;1.25;;
57441;SDS011;43284;47.042;15.498;2024-03-22T13:01:01;2.78;;;1.10;;
57441;SDS011;43284;47.042;15.498;2024-03-22T13:03:28;2.13;;;1.25;;
57441;SDS011;43284;47.042;15.498;2024-03-22T13:05:55;5.03;;;1.20;;
57441;SDS011;43284;47.042;15.498;2024-03-22T13:08:20;3.00;;;1.27;;
57441;SDS011;43284;47.042;15.498;2024-03-22T13:10:46;6.40;;;1.40;;
57441;SDS011;43284;47.042;15.498;2024-03-22T13:13:13;2.17;;;1.60;;
57441;SDS011;43284;47.042;15.498;2024-03-22T13:15:41;4.38;;;1.50;;
57441;SDS011;43284;47.042;15.498;2024-03-22T13:18:07;3.45;;;1.27;;
57441;SDS011;43284;47.042;15.498;2024-03-22T13:20:35;2.50;;;1.30;;
57441;SDS011;43284;47.042;15.498;2024-03-22T13:23:01;3.20;;;1.70;;
57441;SDS011;43284;47.042;15.498;2024-03-22T13:25:27;3.28;;;1.48;;
57441;SDS011;43284;47.042;15.498;2024-03-22T13:27:53;2.33;;;1.23;;
57441;SDS011;43284;47.042;15.498;2024-03-22T13:30:19;2.33;;;1.17;;
57441;SDS011;43284;47.042;15.498;2024-03-22T13:32:45;1.88;;;1.23;;
57441;SDS011;43284;47.042;15.498;2024-03-22T13:35:13;2.90;;;1.38;;
57441;SDS011;43284;47.042;15.498;2024-03-22T13:37:40;3.92;;;1.40;;
57441;SDS011;43284;47.042;15.498;2024-03-22T13:40:06;2.75;;;1.92;;
57441;SDS011;43284;47.042;15.498;2024-03-22T13:42:32;2.83;;;1.40;;
57441;SDS011;43284;47.042;15.498;2024-03-22T13:44:58;3.00;;;1.40;;
57441;SDS011;43284;47.042;15.498;2024-03-22T13:47:24;2.45;;;1.27;;
57441;SDS011;43284;47.042;15.498;2024-03-22T13:49:51;5.00;;;1.63;;
57441;SDS011;43284;47.042;15.498;2024-03-22T13:52:17;3.17;;;1.30;;
57441;SDS011;43284;47.042;15.498;2024-03-22T13:54:43;3.17;;;1.40;;
57441;SDS011;43284;47.042;15.498;2024-03-22T13:57:08;2.10;;;1.27;;
57441;SDS011;43284;47.042;15.498;2024-03-22T13:59:34;3.25;;;1.20;;
57441;SDS011;43284;47.042;15.498;2024-03-22T14:02:01;3.65;;;1.30;;
57441;SDS011;43284;47.042;15.498;2024-03-22T14:04:26;3.08;;;1.40;;
57441;SDS011;43284;47.042;15.498;2024-03-22T14:06:52;3.03;;;1.30;;
57441;SDS011;43284;47.042;15.498;2024-03-22T14:09:18;3.05;;;1.30;;
57441;SDS011;43284;47.042;15.498;2024-03-22T14:11:43;2.25;;;1.73;;
57441;SDS011;43284;47.042;15.498;2024-03-22T14:14:10;3.05;;;1.42;;
57441;SDS011;43284;47.042;15.498;2024-03-22T14:16:37;2.45;;;1.67;;
57441;SDS011;43284;47.042;15.498;2024-03-22T14:19:09;1.92;;;1.13;;
57441;SDS011;43284;47.042;15.498;2024-03-22T14:21:35;2.28;;;1.38;;
57441;SDS011;43284;47.042;15.498;2024-03-22T14:24:03;2.05;;;1.00;;
57441;SDS011;43284;47.042;15.498;2024-03-22T14:26:29;2.38;;;1.23;;
57441;SDS011;43284;47.042;15.498;2024-03-22T14:28:55;3.67;;;1.52;;